AirNav   Pilot Hours Calculator
 
 645 users online  

15NE Sindt Airport
Upland, Nebraska, USA

GOING TO UPLAND?


FAA INFORMATION EFFECTIVE 03 NOVEMBER 2022

Location

FAA Identifier: 15NE
Lat/Long: 40-17-28.0500N 098-49-24.2730W
40-17.467500N 098-49.404550W
40.2911250,-98.8234092
(estimated)
Elevation: 1990 ft. / 607 m (estimated)
Variation: 08E (1985)
From city: 4 miles SE of UPLAND, NE
Time zone: UTC -6 (UTC -5 during Daylight Saving Time)
Zip code: 68981

Airport Operations

Airport use: Private use. Permission required prior to landing
Activation date: 05/1989
Control tower: no
ARTCC: MINNEAPOLIS CENTER
FSS: COLUMBUS FLIGHT SERVICE STATION
Attendance: UNATNDD
Wind indicator: yes
Segmented circle: no

Nearby radio navigation aids

VOR radial/distance  VOR name  Freq  Var
HSIr217/26.0HASTINGS VOR/DME108.8007E
EARr157/(27.4)KEARNEY VOR111.2005E
TKOr308/38.9MANKATO VORTAC109.8010E

Airport Services

Runway Information

Runway 3/21

Dimensions: 2900 x 60 ft. / 884 x 18 m
Surface: turf
RUNWAY 3  RUNWAY 21
Traffic pattern: leftleft

Airport Ownership and Management from official FAA records

Ownership: Privately-owned
Owner: HAROLD I. SINDT JR.
1977 HIGHWAY 4
UPLAND, NE 68981
Phone 402-756-8252
Manager: HAROLD I. SINDT JR.
1977 HIGHWAY 4
UPLAND, NE 68981
Phone 402-756-8252

Airport Operational Statistics

Aircraft based on the field: 2
Multi engine airplanes: 1
Ultralights: 1
    

Additional Remarks

FOR CD CTC MINNEAPOLIS ARTCC AT 651-463-5588.

Instrument Procedures

There are no published instrument procedures at 15NE.

Some nearby airports with instrument procedures:

0V3 - Pioneer Village Field Airport (15 nm NW)
7V7 - Red Cloud Municipal Airport (18 nm SE)
KHDE - Brewster Field Airport (25 nm NW)
KHSI - Hastings Municipal Airport (26 nm NE)
4D9 - Alma Municipal Airport (26 nm SW)
 
Loc | Ops | Rwys | IFR | FBO | Links
Com | Nav | Svcs | Stats | Notes
Area around 15NE (Sindt Airport)
 
Road maps at: MapQuest Bing Google
 
Aerial photo
No photo
 
Sectional chart

 
Airport distance calculator
Flying to Sindt Airport? Find the distance to fly.

From to 15NE

Sunrise and sunset
Times for 27-Nov-2022
 Local
(UTC-6)
 Zulu
(UTC)
Morning civil twilight07:0613:06
Sunrise07:3613:36
Sunset17:1023:10
Evening civil twilight17:4023:40

Current date and time
Zulu (UTC)  27-Nov-2022 12:29:26
Local (UTC-6)  27-Nov-2022 06:29:26
 
METAR
KHDE 
24nm NW 
271215Z AUTO 36019G24KT 10SM OVC110 00/M04 A2989 RMK AO2 T00021043
KHSI 
26nm NE 
271153Z AUTO 34017G23KT 10SM CLR 01/M03 A2987 RMK AO2 PK WND 35027/1129 SLP122 T00061033 10028 20000 53010
KEAR 
27nm N 
271156Z AUTO 35017G22KT 10SM SCT120 00/M04 A2990 RMK AO2 SLP132 T00001039 10022 21006 53012 FZRANO
KK82 
32nm S 
271215Z AUTO 32011KT 10SM CLR 00/M04 A2990 RMK AO2 T10021036
KGRI 
47nm NE 
271153Z AUTO 35015G25KT 10SM CLR 01/M03 A2988 RMK AO2 SLP131 T00061033 10033 20000 53012 $
TAF
KEAR 
27nm N 
271120Z 2712/2812 34015G24KT P6SM SCT120 FM271700 34011KT P6SM SCT120 FM272100 31007KT P6SM SKC FM280100 18007KT P6SM SKC FM280700 19010KT P6SM FEW250 WS007/23040KT
NOTAMs
Click for the latest NOTAMs
NOTAMs are issued by the DoD/FAA and will open in a separate window not controlled by AirNav.

 

 
 

Would you like to see your business listed on this page?

 If your business provides an interesting product or service to pilots, flight crews, aircraft, or users of the Sindt Airport, you should consider listing it here.  To start the listing process, click on the button below
 
Add a business
 

Other Pages about Sindt Airport

Update a link
 
Copyright © AirNav, LLC. All rights reserved. Privacy Policy  Contact